sensor_id;sensor_type;location;lat;lon;timestamp;pressure;altitude;pressure_sealevel;temperature;humidity
85760;BME280;76206;39.770;2.710;2024-03-22T07:02:58;101941.48;;;13.42;61.44
85760;BME280;76206;39.770;2.710;2024-03-22T07:05:25;101939.88;;;13.52;60.98
85760;BME280;76206;39.770;2.710;2024-03-22T07:07:50;101938.33;;;13.68;60.86
85760;BME280;76206;39.770;2.710;2024-03-22T07:10:18;101933.13;;;13.85;61.16
85760;BME280;76206;39.770;2.710;2024-03-22T07:12:44;101934.23;;;14.05;60.89
85760;BME280;76206;39.770;2.710;2024-03-22T07:15:09;101936.05;;;14.25;60.99
85760;BME280;76206;39.770;2.710;2024-03-22T07:17:34;101933.80;;;14.47;60.75
85760;BME280;76206;39.770;2.710;2024-03-22T07:20:00;101936.59;;;14.67;60.36
85760;BME280;76206;39.770;2.710;2024-03-22T07:22:25;101934.73;;;14.89;59.88
85760;BME280;76206;39.770;2.710;2024-03-22T07:24:51;101931.20;;;15.12;59.61
85760;BME280;76206;39.770;2.710;2024-03-22T07:27:16;101937.12;;;15.36;59.13
85760;BME280;76206;39.770;2.710;2024-03-22T07:29:42;101937.66;;;15.55;58.62
85760;BME280;76206;39.770;2.710;2024-03-22T07:32:08;101935.55;;;15.74;58.22
85760;BME280;76206;39.770;2.710;2024-03-22T07:34:34;101931.70;;;15.93;58.01
85760;BME280;76206;39.770;2.710;2024-03-22T07:36:59;101930.84;;;16.11;57.55
85760;BME280;76206;39.770;2.710;2024-03-22T07:39:25;101932.91;;;16.30;57.19
85760;BME280;76206;39.770;2.710;2024-03-22T07:41:50;101931.46;;;16.50;56.98
85760;BME280;76206;39.770;2.710;2024-03-22T07:44:16;101933.83;;;16.69;56.41
85760;BME280;76206;39.770;2.710;2024-03-22T07:46:43;101936.16;;;16.94;56.11
85760;BME280;76206;39.770;2.710;2024-03-22T07:49:10;101931.13;;;17.35;55.46
85760;BME280;76206;39.770;2.710;2024-03-22T07:51:36;101935.31;;;17.63;54.91
85760;BME280;76206;39.770;2.710;2024-03-22T07:54:02;101932.95;;;17.95;54.52
85760;BME280;76206;39.770;2.710;2024-03-22T07:56:28;101932.42;;;18.33;54.35
85760;BME280;76206;39.770;2.710;2024-03-22T07:58:53;101935.31;;;18.69;53.58
85760;BME280;76206;39.770;2.710;2024-03-22T08:01:18;101936.60;;;19.02;53.17
85760;BME280;76206;39.770;2.710;2024-03-22T08:03:44;101934.40;;;19.30;52.92
85760;BME280;76206;39.770;2.710;2024-03-22T08:06:09;101933.96;;;19.55;52.44
85760;BME280;76206;39.770;2.710;2024-03-22T08:08:35;101932.31;;;19.78;52.34
85760;BME280;76206;39.770;2.710;2024-03-22T08:11:01;101932.09;;;20.00;51.94
85760;BME280;76206;39.770;2.710;2024-03-22T08:13:26;101927.66;;;20.21;51.59
85760;BME280;76206;39.770;2.710;2024-03-22T08:15:52;101927.09;;;20.41;51.26
85760;BME280;76206;39.770;2.710;2024-03-22T08:18:17;101921.40;;;20.56;50.79
85760;BME280;76206;39.770;2.710;2024-03-22T08:20:42;101922.36;;;20.73;50.50
85760;BME280;76206;39.770;2.710;2024-03-22T08:23:08;101920.21;;;20.90;50.00
85760;BME280;76206;39.770;2.710;2024-03-22T08:25:33;101920.71;;;21.07;49.63
85760;BME280;76206;39.770;2.710;2024-03-22T08:27:59;101921.35;;;21.24;49.50
85760;BME280;76206;39.770;2.710;2024-03-22T08:30:25;101924.02;;;21.41;49.15
85760;BME280;76206;39.770;2.710;2024-03-22T08:32:51;101924.46;;;21.58;48.81
85760;BME280;76206;39.770;2.710;2024-03-22T08:35:17;101924.39;;;21.75;48.28
85760;BME280;76206;39.770;2.710;2024-03-22T08:37:43;101924.68;;;21.87;47.95
85760;BME280;76206;39.770;2.710;2024-03-22T08:40:08;101928.83;;;22.00;47.71
85760;BME280;76206;39.770;2.710;2024-03-22T08:42:35;101927.60;;;22.16;47.82
85760;BME280;76206;39.770;2.710;2024-03-22T08:45:01;101924.86;;;22.31;47.73
85760;BME280;76206;39.770;2.710;2024-03-22T08:47:26;101922.40;;;22.45;47.55
85760;BME280;76206;39.770;2.710;2024-03-22T08:49:52;101917.08;;;22.60;47.23
85760;BME280;76206;39.770;2.710;2024-03-22T08:52:17;101915.61;;;22.77;46.94
85760;BME280;76206;39.770;2.710;2024-03-22T08:54:43;101918.56;;;22.94;46.61
85760;BME280;76206;39.770;2.710;2024-03-22T08:57:08;101918.86;;;23.14;46.45
85760;BME280;76206;39.770;2.710;2024-03-22T08:59:34;101922.59;;;23.34;46.17
85760;BME280;76206;39.770;2.710;2024-03-22T09:02:00;101921.23;;;23.55;45.87
85760;BME280;76206;39.770;2.710;2024-03-22T09:04:25;101921.96;;;23.76;45.53
85760;BME280;76206;39.770;2.710;2024-03-22T09:06:51;101921.89;;;24.00;45.17
85760;BME280;76206;39.770;2.710;2024-03-22T09:09:17;101919.77;;;24.30;44.88
85760;BME280;76206;39.770;2.710;2024-03-22T09:11:43;101917.95;;;24.69;44.04
85760;BME280;76206;39.770;2.710;2024-03-22T09:14:08;101920.27;;;25.22;43.19
85760;BME280;76206;39.770;2.710;2024-03-22T09:16:34;101925.64;;;25.87;42.31
85760;BME280;76206;39.770;2.710;2024-03-22T09:18:59;101922.48;;;26.61;41.20
85760;BME280;76206;39.770;2.710;2024-03-22T09:21:25;101922.83;;;27.40;39.21
85760;BME280;76206;39.770;2.710;2024-03-22T09:23:50;101919.10;;;28.19;38.04
85760;BME280;76206;39.770;2.710;2024-03-22T09:26:16;101917.05;;;28.93;36.74
85760;BME280;76206;39.770;2.710;2024-03-22T09:28:41;101915.51;;;29.62;35.61
85760;BME280;76206;39.770;2.710;2024-03-22T09:31:07;101918.73;;;30.26;34.97
85760;BME280;76206;39.770;2.710;2024-03-22T09:33:33;101918.13;;;30.89;34.14
85760;BME280;76206;39.770;2.710;2024-03-22T09:35:59;101919.60;;;31.49;33.80
85760;BME280;76206;39.770;2.710;2024-03-22T09:38:25;101918.44;;;32.04;33.64
85760;BME280;76206;39.770;2.710;2024-03-22T09:40:51;101914.30;;;32.56;33.33
85760;BME280;76206;39.770;2.710;2024-03-22T09:43:21;101910.95;;;33.03;33.12
85760;BME280;76206;39.770;2.710;2024-03-22T09:45:47;101912.04;;;33.37;32.78
85760;BME280;76206;39.770;2.710;2024-03-22T09:48:14;101913.34;;;33.72;32.61
85760;BME280;76206;39.770;2.710;2024-03-22T09:50:41;101913.30;;;34.08;32.01
85760;BME280;76206;39.770;2.710;2024-03-22T09:53:08;101908.73;;;34.53;31.69
85760;BME280;76206;39.770;2.710;2024-03-22T09:55:38;101913.56;;;35.04;31.43
85760;BME280;76206;39.770;2.710;2024-03-22T09:58:05;101909.98;;;35.54;30.68
85760;BME280;76206;39.770;2.710;2024-03-22T10:00:30;101914.23;;;36.02;30.47
85760;BME280;76206;39.770;2.710;2024-03-22T10:02:56;101910.84;;;36.46;30.10
85760;BME280;76206;39.770;2.710;2024-03-22T10:05:23;101909.88;;;36.94;29.81
85760;BME280;76206;39.770;2.710;2024-03-22T10:07:49;101910.65;;;37.43;29.34
85760;BME280;76206;39.770;2.710;2024-03-22T10:10:15;101904.17;;;37.84;29.02
85760;BME280;76206;39.770;2.710;2024-03-22T10:12:40;101901.60;;;38.20;28.45
85760;BME280;76206;39.770;2.710;2024-03-22T10:15:06;101904.01;;;38.58;28.03
85760;BME280;76206;39.770;2.710;2024-03-22T10:17:35;101904.81;;;38.88;27.76
85760;BME280;76206;39.770;2.710;2024-03-22T10:20:01;101902.10;;;39.14;27.48
85760;BME280;76206;39.770;2.710;2024-03-22T10:22:26;101901.70;;;39.43;26.93
85760;BME280;76206;39.770;2.710;2024-03-22T10:24:53;101897.05;;;39.64;26.73
85760;BME280;76206;39.770;2.710;2024-03-22T10:27:18;101897.70;;;39.84;26.56
85760;BME280;76206;39.770;2.710;2024-03-22T10:29:44;101897.08;;;40.13;26.30
85760;BME280;76206;39.770;2.710;2024-03-22T10:32:11;101895.71;;;40.42;25.96
85760;BME280;76206;39.770;2.710;2024-03-22T10:34:37;101893.33;;;40.61;25.43
85760;BME280;76206;39.770;2.710;2024-03-22T10:37:05;101886.64;;;40.81;24.97
85760;BME280;76206;39.770;2.710;2024-03-22T10:39:30;101884.73;;;40.92;24.69
85760;BME280;76206;39.770;2.710;2024-03-22T10:41:56;101885.05;;;40.99;24.65
85760;BME280;76206;39.770;2.710;2024-03-22T10:44:21;101885.23;;;41.07;24.44
85760;BME280;76206;39.770;2.710;2024-03-22T10:46:48;101881.16;;;41.20;24.13
85760;BME280;76206;39.770;2.710;2024-03-22T10:49:18;101880.81;;;41.27;23.83
85760;BME280;76206;39.770;2.710;2024-03-22T10:51:50;101878.58;;;41.30;23.62
85760;BME280;76206;39.770;2.710;2024-03-22T10:54:19;101872.48;;;41.28;23.48
85760;BME280;76206;39.770;2.710;2024-03-22T10:56:46;101871.80;;;41.12;23.31
85760;BME280;76206;39.770;2.710;2024-03-22T10:59:22;101869.63;;;40.89;23.21
85760;BME280;76206;39.770;2.710;2024-03-22T11:01:49;101865.11;;;40.58;23.14
85760;BME280;76206;39.770;2.710;2024-03-22T11:04:19;101861.61;;;40.17;23.45
85760;BME280;76206;39.770;2.710;2024-03-22T11:06:50;101861.44;;;39.77;23.88
85760;BME280;76206;39.770;2.710;2024-03-22T11:09:22;101860.48;;;39.37;24.14
85760;BME280;76206;39.770;2.710;2024-03-22T11:11:51;101852.29;;;38.92;24.39
85760;BME280;76206;39.770;2.710;2024-03-22T11:14:17;101850.88;;;38.44;24.83
85760;BME280;76206;39.770;2.710;2024-03-22T11:16:45;101848.25;;;37.92;25.15
85760;BME280;76206;39.770;2.710;2024-03-22T11:19:11;101841.93;;;37.39;25.50
85760;BME280;76206;39.770;2.710;2024-03-22T11:21:37;101834.81;;;36.86;26.26
85760;BME280;76206;39.770;2.710;2024-03-22T11:24:04;101837.62;;;36.37;26.44
85760;BME280;76206;39.770;2.710;2024-03-22T11:26:30;101834.77;;;35.88;26.60
85760;BME280;76206;39.770;2.710;2024-03-22T11:28:55;101835.23;;;35.44;27.16
85760;BME280;76206;39.770;2.710;2024-03-22T11:31:22;101831.16;;;35.04;27.17
85760;BME280;76206;39.770;2.710;2024-03-22T11:33:55;101824.89;;;34.67;27.46
85760;BME280;76206;39.770;2.710;2024-03-22T11:36:22;101827.40;;;34.29;27.86
85760;BME280;76206;39.770;2.710;2024-03-22T11:38:48;101822.21;;;33.97;28.33
85760;BME280;76206;39.770;2.710;2024-03-22T11:41:25;101820.45;;;33.66;28.68
85760;BME280;76206;39.770;2.710;2024-03-22T11:43:53;101817.70;;;33.36;29.06
85760;BME280;76206;39.770;2.710;2024-03-22T11:46:19;101814.13;;;33.08;29.30
85760;BME280;76206;39.770;2.710;2024-03-22T11:48:51;101812.34;;;32.83;29.57
85760;BME280;76206;39.770;2.710;2024-03-22T11:51:16;101812.95;;;32.59;29.74
85760;BME280;76206;39.770;2.710;2024-03-22T11:53:49;101813.02;;;32.35;29.81
85760;BME280;76206;39.770;2.710;2024-03-22T11:56:17;101812.24;;;32.13;30.22
85760;BME280;76206;39.770;2.710;2024-03-22T11:58:45;101812.05;;;31.95;30.41
85760;BME280;76206;39.770;2.710;2024-03-22T12:01:12;101808.24;;;31.77;30.44
85760;BME280;76206;39.770;2.710;2024-03-22T12:03:38;101801.27;;;31.61;30.67
85760;BME280;76206;39.770;2.710;2024-03-22T12:06:05;101802.38;;;31.48;30.74
85760;BME280;76206;39.770;2.710;2024-03-22T12:08:31;101803.98;;;31.39;30.75
85760;BME280;76206;39.770;2.710;2024-03-22T12:10:56;101799.37;;;31.31;30.57
85760;BME280;76206;39.770;2.710;2024-03-22T12:13:22;101799.66;;;31.22;30.52
85760;BME280;76206;39.770;2.710;2024-03-22T12:15:47;101796.27;;;31.15;30.32
85760;BME280;76206;39.770;2.710;2024-03-22T12:18:13;101791.60;;;31.08;30.34
85760;BME280;76206;39.770;2.710;2024-03-22T12:20:39;101788.16;;;30.98;30.37
85760;BME280;76206;39.770;2.710;2024-03-22T12:23:04;101779.23;;;30.85;30.51
85760;BME280;76206;39.770;2.710;2024-03-22T12:25:30;101776.98;;;30.73;30.51
85760;BME280;76206;39.770;2.710;2024-03-22T12:27:55;101774.44;;;30.62;30.63
85760;BME280;76206;39.770;2.710;2024-03-22T12:30:21;101771.87;;;30.55;30.76
85760;BME280;76206;39.770;2.710;2024-03-22T12:32:47;101769.72;;;30.49;30.90
85760;BME280;76206;39.770;2.710;2024-03-22T12:35:12;101770.85;;;30.45;31.03
85760;BME280;76206;39.770;2.710;2024-03-22T12:37:38;101771.74;;;30.39;31.05
85760;BME280;76206;39.770;2.710;2024-03-22T12:40:03;101767.55;;;30.34;31.23
85760;BME280;76206;39.770;2.710;2024-03-22T12:42:29;101769.11;;;30.29;31.19
85760;BME280;76206;39.770;2.710;2024-03-22T12:44:54;101765.20;;;30.22;31.49
85760;BME280;76206;39.770;2.710;2024-03-22T12:47:20;101768.56;;;30.15;31.68
85760;BME280;76206;39.770;2.710;2024-03-22T12:49:45;101764.46;;;30.09;31.66
85760;BME280;76206;39.770;2.710;2024-03-22T12:52:11;101760.57;;;30.05;31.96
85760;BME280;76206;39.770;2.710;2024-03-22T12:54:36;101756.92;;;30.00;31.92
85760;BME280;76206;39.770;2.710;2024-03-22T12:57:02;101755.98;;;29.89;31.88
85760;BME280;76206;39.770;2.710;2024-03-22T12:59:28;101757.10;;;29.78;31.98
85760;BME280;76206;39.770;2.710;2024-03-22T13:01:53;101755.45;;;29.66;32.34
85760;BME280;76206;39.770;2.710;2024-03-22T13:04:19;101752.16;;;29.54;32.47
85760;BME280;76206;39.770;2.710;2024-03-22T13:06:44;101753.93;;;29.44;32.73
85760;BME280;76206;39.770;2.710;2024-03-22T13:09:10;101751.35;;;29.35;32.70
85760;BME280;76206;39.770;2.710;2024-03-22T13:11:37;101750.48;;;29.27;32.98
85760;BME280;76206;39.770;2.710;2024-03-22T13:14:03;101748.29;;;29.20;33.26
85760;BME280;76206;39.770;2.710;2024-03-22T13:16:28;101747.13;;;29.13;33.40
85760;BME280;76206;39.770;2.710;2024-03-22T13:18:54;101746.18;;;29.08;33.48
85760;BME280;76206;39.770;2.710;2024-03-22T13:21:19;101741.41;;;29.03;33.81
85760;BME280;76206;39.770;2.710;2024-03-22T13:23:45;101738.00;;;28.97;33.94
85760;BME280;76206;39.770;2.710;2024-03-22T13:26:10;101730.70;;;28.91;34.01
85760;BME280;76206;39.770;2.710;2024-03-22T13:28:36;101727.36;;;28.83;34.13
85760;BME280;76206;39.770;2.710;2024-03-22T13:31:02;101722.27;;;28.76;34.25
85760;BME280;76206;39.770;2.710;2024-03-22T13:33:29;101717.94;;;28.71;34.49
85760;BME280;76206;39.770;2.710;2024-03-22T13:35:55;101711.57;;;28.64;34.72
85760;BME280;76206;39.770;2.710;2024-03-22T13:38:20;101714.18;;;28.59;34.75
85760;BME280;76206;39.770;2.710;2024-03-22T13:40:53;101711.94;;;28.57;34.91
85760;BME280;76206;39.770;2.710;2024-03-22T13:43:19;101710.23;;;28.54;34.97
85760;BME280;76206;39.770;2.710;2024-03-22T13:45:44;101712.13;;;28.50;35.20
85760;BME280;76206;39.770;2.710;2024-03-22T13:48:11;101706.91;;;28.46;35.32
85760;BME280;76206;39.770;2.710;2024-03-22T13:50:37;101707.25;;;28.43;35.49
85760;BME280;76206;39.770;2.710;2024-03-22T13:53:03;101707.14;;;28.39;35.33
85760;BME280;76206;39.770;2.710;2024-03-22T13:55:29;101708.29;;;28.34;35.46
85760;BME280;76206;39.770;2.710;2024-03-22T13:57:54;101703.20;;;28.27;35.34
85760;BME280;76206;39.770;2.710;2024-03-22T14:00:20;101702.94;;;28.21;35.40
85760;BME280;76206;39.770;2.710;2024-03-22T14:02:45;101699.73;;;28.14;35.55
85760;BME280;76206;39.770;2.710;2024-03-22T14:05:17;101700.65;;;28.06;35.68
85760;BME280;76206;39.770;2.710;2024-03-22T14:07:43;101695.13;;;28.01;35.75
85760;BME280;76206;39.770;2.710;2024-03-22T14:10:09;101692.99;;;27.97;35.77
85760;BME280;76206;39.770;2.710;2024-03-22T14:12:35;101695.10;;;27.91;35.87
